createdAt,value
2023-03-22T00:01:28.590Z,11.94
2023-03-22T00:03:58.165Z,11.95
2023-03-22T00:06:34.125Z,11.94
2023-03-22T00:09:02.161Z,11.87
2023-03-22T00:11:31.779Z,11.85
2023-03-22T00:13:59.600Z,11.84
2023-03-22T00:16:32.609Z,11.83
2023-03-22T00:19:00.531Z,11.86
2023-03-22T00:21:28.357Z,11.80
2023-03-22T00:23:56.215Z,11.80
2023-03-22T00:26:24.168Z,11.74
2023-03-22T00:28:54.331Z,11.70
2023-03-22T00:31:22.286Z,11.70
2023-03-22T00:33:57.550Z,11.72
2023-03-22T00:36:26.365Z,11.71
2023-03-22T00:38:54.199Z,11.62
2023-03-22T00:41:23.959Z,11.53
2023-03-22T00:43:53.067Z,11.58
2023-03-22T00:46:22.009Z,11.54
2023-03-22T00:48:49.892Z,11.48
2023-03-22T00:51:18.614Z,11.53
2023-03-22T00:53:49.943Z,11.52
2023-03-22T00:56:18.738Z,11.49
2023-03-22T00:58:57.371Z,11.50
2023-03-22T01:01:25.972Z,11.49
2023-03-22T01:03:56.010Z,11.49
2023-03-22T01:06:23.974Z,11.46
2023-03-22T01:08:57.630Z,11.48
2023-03-22T01:11:26.401Z,11.44
2023-03-22T01:13:55.762Z,11.38
2023-03-22T01:16:25.442Z,11.38
2023-03-22T01:18:53.892Z,11.43
2023-03-22T01:21:21.835Z,11.48
2023-03-22T01:23:51.511Z,11.54
2023-03-22T01:26:19.507Z,11.66
2023-03-22T01:28:47.391Z,11.76
2023-03-22T01:31:15.282Z,11.80
2023-03-22T01:33:45.336Z,11.88
2023-03-22T01:36:13.403Z,11.89
2023-03-22T01:38:43.001Z,11.98
2023-03-22T01:41:10.953Z,12.08
2023-03-22T01:43:42.333Z,12.03
2023-03-22T01:46:11.008Z,11.99
2023-03-22T01:48:46.480Z,11.97
2023-03-22T01:51:22.423Z,11.90
2023-03-22T01:54:26.319Z,11.94
2023-03-22T01:56:54.814Z,11.95
2023-03-22T01:59:33.097Z,11.91
2023-03-22T02:02:19.965Z,11.90
2023-03-22T02:04:58.202Z,11.79
2023-03-22T02:07:31.650Z,11.83
2023-03-22T02:10:01.432Z,11.79
2023-03-22T02:12:59.538Z,11.69
2023-03-22T02:16:00.083Z,11.62
2023-03-22T02:19:15.211Z,11.52
2023-03-22T02:22:26.728Z,11.50
2023-03-22T02:25:26.501Z,11.29
2023-03-22T02:28:18.904Z,11.23
2023-03-22T02:31:17.382Z,11.24
2023-03-22T02:34:33.034Z,11.20
2023-03-22T02:37:51.797Z,11.23
2023-03-22T02:40:34.111Z,11.29
2023-03-22T02:43:18.341Z,11.32
2023-03-22T02:45:54.348Z,11.31
2023-03-22T02:48:33.922Z,11.29
2023-03-22T02:51:09.677Z,11.31
2023-03-22T02:53:44.637Z,11.43
2023-03-22T02:56:23.235Z,11.40
2023-03-22T02:58:56.760Z,11.44
2023-03-22T03:01:29.880Z,11.55
2023-03-22T03:04:04.868Z,11.69
2023-03-22T03:06:39.882Z,11.70
2023-03-22T03:09:08.984Z,11.74
2023-03-22T03:11:38.269Z,11.81
2023-03-22T03:14:06.294Z,11.80
2023-03-22T03:16:35.267Z,11.79
2023-03-22T03:19:15.363Z,11.79
2023-03-22T03:21:55.194Z,11.88
2023-03-22T03:24:34.106Z,11.95
2023-03-22T03:27:14.210Z,11.99
2023-03-22T03:29:48.477Z,12.06
2023-03-22T03:32:26.730Z,12.07
2023-03-22T03:35:02.773Z,12.08
2023-03-22T03:37:39.813Z,12.18
2023-03-22T03:40:17.707Z,12.11
2023-03-22T03:42:52.989Z,12.15
2023-03-22T03:45:22.223Z,12.25
2023-03-22T03:47:56.980Z,12.30
2023-03-22T03:50:29.242Z,12.20
2023-03-22T03:52:58.183Z,12.28
2023-03-22T03:55:28.666Z,12.22
2023-03-22T03:57:58.032Z,12.16
2023-03-22T04:00:28.583Z,12.27
2023-03-22T04:03:19.677Z,12.27
2023-03-22T04:06:20.120Z,12.23
2023-03-22T04:08:54.024Z,12.12
2023-03-22T04:11:26.171Z,12.07
2023-03-22T04:14:00.294Z,11.93
2023-03-22T04:16:29.036Z,11.98
2023-03-22T04:18:57.145Z,11.87
2023-03-22T04:21:25.885Z,11.75
2023-03-22T04:26:51.019Z,11.69
2023-03-22T04:29:51.331Z,11.66
2023-03-22T04:32:45.365Z,11.70
2023-03-22T04:35:14.791Z,11.67
2023-03-22T04:37:43.185Z,11.55
2023-03-22T04:40:21.055Z,11.51
2023-03-22T04:43:04.815Z,11.54
2023-03-22T04:45:48.883Z,11.50
2023-03-22T04:51:34.603Z,11.51
2023-03-22T04:54:29.105Z,11.62
2023-03-22T04:56:57.329Z,11.57
2023-03-22T04:59:28.176Z,11.62
2023-03-22T05:01:58.331Z,11.53
2023-03-22T05:04:31.942Z,11.49
2023-03-22T05:07:06.688Z,11.49
2023-03-22T05:09:44.314Z,11.46
2023-03-22T05:12:12.813Z,11.54
2023-03-22T05:14:50.239Z,11.52
2023-03-22T05:17:26.051Z,11.64
2023-03-22T05:19:56.702Z,11.60
2023-03-22T05:22:25.819Z,11.55
2023-03-22T05:24:55.640Z,11.59
2023-03-22T05:27:31.741Z,11.51
2023-03-22T05:30:18.950Z,11.56
2023-03-22T05:33:00.753Z,11.51
2023-03-22T05:35:29.393Z,11.53
2023-03-22T05:38:01.415Z,11.51
2023-03-22T05:40:32.534Z,11.46
2023-03-22T05:43:01.211Z,11.53
2023-03-22T05:45:33.258Z,11.58
2023-03-22T05:48:20.831Z,11.71
2023-03-22T05:50:49.221Z,11.55
2023-03-22T05:53:33.686Z,11.57
2023-03-22T05:56:32.369Z,11.65
2023-03-22T05:59:09.211Z,11.64
2023-03-22T06:01:37.773Z,11.71
2023-03-22T06:04:27.328Z,11.64
2023-03-22T06:07:02.666Z,11.74
2023-03-22T06:12:56.370Z,11.57
2023-03-22T06:18:45.746Z,11.68
2023-03-22T06:24:17.157Z,11.66
2023-03-22T06:27:04.784Z,11.68
2023-03-22T06:29:33.726Z,11.75
2023-03-22T06:32:07.963Z,11.85
2023-03-22T06:34:36.804Z,11.89
2023-03-22T06:37:22.808Z,11.99
2023-03-22T06:39:57.150Z,12.03
2023-03-22T06:43:15.807Z,12.09
2023-03-22T06:45:48.168Z,12.20
2023-03-22T06:48:21.900Z,12.34
2023-03-22T06:50:57.774Z,12.46
2023-03-22T06:53:31.679Z,12.41
2023-03-22T06:55:59.812Z,12.51
2023-03-22T06:58:30.864Z,12.60
2023-03-22T07:00:59.389Z,12.64
2023-03-22T07:03:28.819Z,12.64
2023-03-22T07:06:08.677Z,12.57
2023-03-22T07:08:46.226Z,12.64
2023-03-22T07:11:17.427Z,12.74
2023-03-22T07:13:53.273Z,12.78
2023-03-22T07:16:24.454Z,12.76
2023-03-22T07:18:57.294Z,12.78
2023-03-22T07:21:25.524Z,12.83
2023-03-22T07:23:59.837Z,12.79
2023-03-22T07:26:31.828Z,12.95
2023-03-22T07:29:01.133Z,13.03
2023-03-22T07:31:35.547Z,13.25
2023-03-22T07:34:07.045Z,13.57
2023-03-22T07:36:43.586Z,13.84
2023-03-22T07:39:15.355Z,13.99
2023-03-22T07:41:47.191Z,13.99
2023-03-22T07:44:24.602Z,14.02
2023-03-22T07:47:11.270Z,14.07
2023-03-22T07:49:45.676Z,14.17
2023-03-22T07:52:21.147Z,14.35
2023-03-22T07:54:51.699Z,14.30
2023-03-22T07:57:19.695Z,14.20
2023-03-22T07:59:55.740Z,14.41
2023-03-22T08:02:41.059Z,14.42
2023-03-22T08:05:17.203Z,14.49
2023-03-22T08:07:52.492Z,14.70
2023-03-22T08:10:24.388Z,14.51
2023-03-22T08:13:01.047Z,14.70
2023-03-22T08:15:29.104Z,14.83
2023-03-22T08:18:00.961Z,14.84
2023-03-22T08:20:34.179Z,14.79
2023-03-22T08:23:12.462Z,14.76
2023-03-22T08:26:11.558Z,14.85
2023-03-22T08:28:39.423Z,14.70
2023-03-22T08:31:13.996Z,14.59
2023-03-22T08:33:44.782Z,14.54
2023-03-22T08:36:19.248Z,14.46
2023-03-22T08:38:58.119Z,14.43
2023-03-22T08:41:39.821Z,14.50
2023-03-22T08:44:07.839Z,14.47
2023-03-22T08:46:36.891Z,14.43
2023-03-22T08:49:04.964Z,14.53
2023-03-22T08:51:36.923Z,14.54
2023-03-22T08:54:14.670Z,14.63
2023-03-22T08:56:59.369Z,14.73
2023-03-22T09:00:08.922Z,14.63
2023-03-22T09:02:43.925Z,14.71
2023-03-22T09:05:13.607Z,14.81
2023-03-22T09:07:42.922Z,15.00
2023-03-22T09:10:19.403Z,14.93
2023-03-22T09:12:52.812Z,14.66
2023-03-22T09:15:20.765Z,14.63
2023-03-22T09:18:02.229Z,14.65
2023-03-22T09:20:30.364Z,14.65
2023-03-22T09:22:58.186Z,14.85
2023-03-22T09:25:26.360Z,14.84
2023-03-22T09:27:55.658Z,14.82
2023-03-22T09:30:24.248Z,14.93
2023-03-22T09:32:52.465Z,14.94
2023-03-22T09:35:21.702Z,15.00
2023-03-22T09:37:56.206Z,15.06
2023-03-22T09:40:31.101Z,14.90
2023-03-22T09:43:05.852Z,14.96
2023-03-22T09:45:41.558Z,15.03
2023-03-22T09:48:19.899Z,15.03
2023-03-22T09:50:54.738Z,14.90
2023-03-22T09:53:27.297Z,15.24
2023-03-22T09:56:03.449Z,15.33
2023-03-22T09:58:42.233Z,15.53
2023-03-22T10:01:32.057Z,15.49
2023-03-22T10:04:35.309Z,15.44
2023-03-22T10:07:16.162Z,15.35
2023-03-22T10:09:55.988Z,15.26
2023-03-22T10:12:29.515Z,15.37
2023-03-22T10:15:10.648Z,15.18
2023-03-22T10:17:51.982Z,15.06
2023-03-22T10:20:34.742Z,15.04
2023-03-22T10:23:09.992Z,15.17
2023-03-22T10:25:41.096Z,15.37
2023-03-22T10:28:21.649Z,15.78
2023-03-22T10:30:55.971Z,15.98
2023-03-22T10:33:38.896Z,16.09
2023-03-22T10:36:20.889Z,16.37
2023-03-22T10:38:57.362Z,16.60
2023-03-22T10:41:37.723Z,16.48
2023-03-22T10:44:21.861Z,16.61
2023-03-22T10:47:07.365Z,16.79
2023-03-22T10:50:08.580Z,17.13
2023-03-22T10:52:53.197Z,16.81
2023-03-22T10:55:26.014Z,17.02
2023-03-22T10:58:13.789Z,17.14
2023-03-22T11:01:00.378Z,17.03
2023-03-22T11:03:48.272Z,17.08
2023-03-22T11:06:28.121Z,17.01
2023-03-22T11:09:11.862Z,17.12
2023-03-22T11:11:53.741Z,16.99
2023-03-22T11:14:36.400Z,17.03
2023-03-22T11:17:14.458Z,16.69
2023-03-22T11:22:50.221Z,16.46
2023-03-22T11:25:28.325Z,16.47
2023-03-22T11:28:10.515Z,16.19
2023-03-22T11:30:40.062Z,16.29
2023-03-22T11:33:21.878Z,16.30
2023-03-22T11:36:00.089Z,16.33
2023-03-22T11:38:38.547Z,16.06
2023-03-22T11:41:25.810Z,16.06
2023-03-22T11:44:04.319Z,15.94
2023-03-22T11:46:37.103Z,15.98
2023-03-22T11:49:14.811Z,16.08
2023-03-22T11:51:50.376Z,15.99
2023-03-22T11:54:29.648Z,15.92
2023-03-22T11:57:04.405Z,15.94
2023-03-22T11:59:39.503Z,15.77
2023-03-22T12:02:22.448Z,15.37
2023-03-22T12:05:06.571Z,15.15
2023-03-22T12:07:41.688Z,14.67
2023-03-22T12:10:21.645Z,14.53
2023-03-22T12:13:00.688Z,14.40
2023-03-22T12:15:38.603Z,14.24
2023-03-22T12:18:15.397Z,14.29
2023-03-22T12:20:57.570Z,14.13
2023-03-22T12:23:31.008Z,13.93
2023-03-22T12:26:07.059Z,13.66
2023-03-22T12:28:46.088Z,13.63
2023-03-22T12:31:21.756Z,13.59
2023-03-22T12:33:57.105Z,13.56
2023-03-22T12:36:52.556Z,13.43
2023-03-22T12:39:31.402Z,13.53
2023-03-22T12:42:11.379Z,13.72
2023-03-22T12:44:55.508Z,13.73
2023-03-22T12:47:42.085Z,13.82
2023-03-22T12:50:18.101Z,13.79
2023-03-22T12:52:50.421Z,13.84
2023-03-22T12:55:26.784Z,13.92
2023-03-22T12:57:55.720Z,13.91
2023-03-22T13:00:37.040Z,14.06
2023-03-22T13:03:23.155Z,14.09
2023-03-22T13:06:06.308Z,14.26
2023-03-22T13:09:09.977Z,14.44
2023-03-22T13:11:40.167Z,14.59
2023-03-22T13:14:12.522Z,14.87
2023-03-22T13:16:52.357Z,15.24
2023-03-22T13:19:41.483Z,15.32
2023-03-22T13:22:22.371Z,15.71
2023-03-22T13:25:17.312Z,15.67
2023-03-22T13:27:55.247Z,15.65
2023-03-22T13:30:56.873Z,15.77
2023-03-22T13:33:29.572Z,15.71
2023-03-22T13:36:04.777Z,15.78
2023-03-22T13:38:42.359Z,15.54
2023-03-22T13:41:24.499Z,15.45
2023-03-22T13:43:56.812Z,15.58
2023-03-22T13:46:47.448Z,15.40
2023-03-22T13:49:49.325Z,15.73
2023-03-22T13:52:36.817Z,15.72
2023-03-22T13:55:36.999Z,15.62
2023-03-22T13:58:11.478Z,15.75
2023-03-22T14:00:59.821Z,15.60
2023-03-22T14:03:39.323Z,15.41
2023-03-22T14:06:19.143Z,15.54
2023-03-22T14:08:57.693Z,15.52
2023-03-22T14:11:38.628Z,15.57
2023-03-22T14:14:19.612Z,15.65
2023-03-22T14:16:53.620Z,15.64
2023-03-22T14:19:28.320Z,15.57
